Time;durP1;ratioP1;P1;durP2;ratioP2;P2;SDS_P1;SDS_P2;PMS_P1;PMS_P2;Temp;Humidity;BMP_temperature;BMP_pressure;BME280_temperature;BME280_humidity;BME280_pressure;Samples;Min_cycle;Max_cycle;Signal;HPM_P1;HPM_P2
2022/04/11 00:00:44;;;;;;;;;;;4.60;99.90;;;;;;2064302;28;19922;-67
2022/04/11 00:01:45;;;;;;;;;;;4.60;99.90;;;;;;2063456;28;19914;-67
2022/04/11 00:02:45;;;;;;;;;;;4.60;99.90;;;;;;2061768;28;19960;-67
2022/04/11 00:03:46;;;;;;;;;;;4.60;99.90;;;;;;2063794;28;19914;-68
2022/04/11 00:04:46;;;;;;;;;;;4.60;99.90;;;;;;2061247;28;19910;-67
2022/04/11 00:05:47;;;;;;;;;;;4.60;99.90;;;;;;2063085;28;19916;-67
2022/04/11 00:06:47;;;;;;;;;;;4.60;99.90;;;;;;2062226;28;19924;-67
2022/04/11 00:07:49;;;;;;;;;;;4.70;99.90;;;;;;2065509;28;20295;-67
2022/04/11 00:08:49;;;;;;;;;;;4.70;99.90;;;;;;2065074;28;19913;-67
2022/04/11 00:09:49;;;;;;;;;;;4.70;99.90;;;;;;2065565;28;19922;-67
2022/04/11 00:10:50;;;;;;;;;;;4.70;99.90;;;;;;2063140;28;19914;-67
2022/04/11 00:11:51;;;;;;;;;;;4.70;99.90;;;;;;2062783;28;19925;-67
2022/04/11 00:12:59;;;;;;;;;;;4.70;99.90;;;;;;2064530;28;19949;-67
2022/04/11 00:14:01;;;;;;;;;;;4.70;99.90;;;;;;2067690;28;19978;-67
2022/04/11 00:15:06;;;;;;;;;;;4.70;99.90;;;;;;2067622;28;20437;-67
2022/04/11 00:16:07;;;;;;;;;;;4.70;99.90;;;;;;2064880;28;19910;-67
2022/04/11 00:17:07;;;;;;;;;;;4.70;99.90;;;;;;2066119;28;19920;-67
2022/04/11 00:18:08;;;;;;;;;;;4.70;99.90;;;;;;2062748;28;20369;-67
2022/04/11 00:19:08;;;;;;;;;;;4.70;99.90;;;;;;2065276;28;19957;-67
2022/04/11 00:20:09;;;;;;;;;;;4.70;99.90;;;;;;2062477;28;20420;-67
2022/04/11 00:21:10;;;;;;;;;;;4.70;99.90;;;;;;2063501;28;19917;-67
2022/04/11 00:22:11;;;;;;;;;;;4.70;99.90;;;;;;2067085;28;20723;-67
2022/04/11 00:23:11;;;;;;;;;;;4.70;99.90;;;;;;2067041;28;20004;-67
2022/04/11 00:24:12;;;;;;;;;;;4.70;99.90;;;;;;2065622;28;19910;-67
2022/04/11 00:25:12;;;;;;;;;;;4.70;99.90;;;;;;2064630;28;19914;-67
2022/04/11 00:26:13;;;;;;;;;;;4.70;99.90;;;;;;2062571;28;19914;-67
2022/04/11 00:27:13;;;;;;;;;;;4.70;99.90;;;;;;2063820;28;19918;-67
2022/04/11 00:28:14;;;;;;;;;;;4.70;99.90;;;;;;2062036;28;20004;-67
2022/04/11 00:29:14;;;;;;;;;;;4.70;99.90;;;;;;2063803;28;20003;-67
2022/04/11 00:30:15;;;;;;;;;;;4.70;99.90;;;;;;2067674;28;19920;-67
2022/04/11 00:31:15;;;;;;;;;;;4.70;99.90;;;;;;2062734;28;19993;-67
2022/04/11 00:32:15;;;;;;;;;;;4.70;99.90;;;;;;2066440;28;19914;-67
2022/04/11 00:33:16;;;;;;;;;;;4.70;99.90;;;;;;2071563;28;20520;-67
2022/04/11 00:34:16;;;;;;;;;;;4.70;99.90;;;;;;2061375;28;19941;-67
2022/04/11 00:35:17;;;;;;;;;;;4.70;99.90;;;;;;2061943;28;19965;-67
2022/04/11 00:36:17;;;;;;;;;;;4.70;99.90;;;;;;2063993;28;19910;-67
2022/04/11 00:37:18;;;;;;;;;;;4.60;99.90;;;;;;2063588;28;19914;-67
2022/04/11 00:38:18;;;;;;;;;;;4.60;99.90;;;;;;2067164;28;19914;-67
2022/04/11 00:39:19;;;;;;;;;;;4.60;99.90;;;;;;2063987;28;20546;-67
2022/04/11 00:40:19;;;;;;;;;;;4.60;99.90;;;;;;2066721;28;20008;-67
2022/04/11 00:41:20;;;;;;;;;;;4.60;99.90;;;;;;2063942;28;19918;-67
2022/04/11 00:42:20;;;;;;;;;;;4.60;99.90;;;;;;2065535;28;20504;-67
2022/04/11 00:43:31;;;;;;;;;;;4.60;99.90;;;;;;2064123;28;19914;-67
2022/04/11 00:44:31;;;;;;;;;;;4.60;99.90;;;;;;2063999;28;19960;-67
2022/04/11 00:45:31;;;;;;;;;;;4.60;99.90;;;;;;2062397;28;20044;-67
2022/04/11 00:46:32;;;;;;;;;;;4.60;99.90;;;;;;2063294;28;20281;-67
2022/04/11 00:47:32;;;;;;;;;;;4.60;99.90;;;;;;2064694;28;19918;-67
2022/04/11 00:48:33;;;;;;;;;;;4.60;99.90;;;;;;2066569;28;19926;-67
2022/04/11 00:49:34;;;;;;;;;;;4.60;99.90;;;;;;2064688;28;20412;-67
2022/04/11 00:50:34;;;;;;;;;;;4.60;99.90;;;;;;2064481;28;19914;-67
2022/04/11 00:51:35;;;;;;;;;;;4.60;99.90;;;;;;2063705;28;19945;-67
2022/04/11 00:52:37;;;;;;;;;;;4.60;99.90;;;;;;2064156;28;19910;-67
2022/04/11 00:53:38;;;;;;;;;;;4.60;99.90;;;;;;2064748;28;19924;-67
2022/04/11 00:54:40;;;;;;;;;;;4.60;99.90;;;;;;2066826;28;19915;-68
2022/04/11 00:55:42;;;;;;;;;;;4.60;99.90;;;;;;2062144;28;20456;-67
2022/04/11 00:56:43;;;;;;;;;;;4.60;99.90;;;;;;2064275;28;20004;-67
2022/04/11 00:57:44;;;;;;;;;;;4.60;99.90;;;;;;2061551;28;19914;-67
2022/04/11 00:58:45;;;;;;;;;;;4.60;99.90;;;;;;2068398;28;19913;-67
2022/04/11 00:59:45;;;;;;;;;;;4.60;99.90;;;;;;2070799;28;19914;-67
2022/04/11 01:00:46;;;;;;;;;;;4.50;99.90;;;;;;2067154;28;19963;-68
2022/04/11 01:01:47;;;;;;;;;;;4.60;99.90;;;;;;2063464;28;19964;-68
2022/04/11 01:02:48;;;;;;;;;;;4.60;99.90;;;;;;2062458;28;19913;-68
2022/04/11 01:03:48;;;;;;;;;;;4.60;99.90;;;;;;2063047;28;19918;-67
2022/04/11 01:04:49;;;;;;;;;;;4.50;99.90;;;;;;2062076;28;20266;-68
2022/04/11 01:05:49;;;;;;;;;;;4.50;99.90;;;;;;2062605;28;19917;-68
2022/04/11 01:06:54;;;;;;;;;;;4.50;99.90;;;;;;2064955;28;19920;-68
2022/04/11 01:08:01;;;;;;;;;;;4.50;99.90;;;;;;2060785;28;19958;-67
2022/04/11 01:09:01;;;;;;;;;;;4.50;99.90;;;;;;2062118;28;19918;-68
2022/04/11 01:10:02;;;;;;;;;;;4.50;99.90;;;;;;2063604;28;19917;-68
2022/04/11 01:11:03;;;;;;;;;;;4.50;99.90;;;;;;2063004;28;20004;-68
2022/04/11 01:12:04;;;;;;;;;;;4.50;99.90;;;;;;2063793;28;20017;-68
2022/04/11 01:13:04;;;;;;;;;;;4.50;99.90;;;;;;2063131;28;19989;-68
2022/04/11 01:14:05;;;;;;;;;;;4.50;99.90;;;;;;2065140;28;19909;-68
2022/04/11 01:15:05;;;;;;;;;;;4.50;99.90;;;;;;2063368;28;19913;-68
2022/04/11 01:16:06;;;;;;;;;;;4.50;99.90;;;;;;2062257;28;19914;-68
2022/04/11 01:17:06;;;;;;;;;;;4.50;99.90;;;;;;2064462;28;19914;-68
2022/04/11 01:18:07;;;;;;;;;;;4.50;99.90;;;;;;2068641;28;20388;-68
2022/04/11 01:19:07;;;;;;;;;;;4.50;99.90;;;;;;2066524;28;19925;-68
2022/04/11 01:20:08;;;;;;;;;;;4.50;99.90;;;;;;2067164;28;19910;-68
2022/04/11 01:21:09;;;;;;;;;;;4.50;99.90;;;;;;2064948;28;20318;-68
2022/04/11 01:22:10;;;;;;;;;;;4.50;99.90;;;;;;2064406;28;20004;-68
2022/04/11 01:23:10;;;;;;;;;;;4.50;99.90;;;;;;2059885;28;19949;-67
2022/04/11 01:24:11;;;;;;;;;;;4.50;99.90;;;;;;2064356;28;19910;-68
2022/04/11 01:25:12;;;;;;;;;;;4.50;99.90;;;;;;2061089;28;20341;-68
2022/04/11 01:26:14;;;;;;;;;;;4.50;99.90;;;;;;2064744;28;19910;-68
2022/04/11 01:27:15;;;;;;;;;;;4.40;99.90;;;;;;2067656;28;19949;-68
2022/04/11 01:28:16;;;;;;;;;;;4.40;99.90;;;;;;2066200;28;19910;-68
2022/04/11 01:29:17;;;;;;;;;;;4.50;99.90;;;;;;2065357;28;19913;-68
2022/04/11 01:30:18;;;;;;;;;;;4.40;99.90;;;;;;2062469;28;19922;-68
2022/04/11 01:31:18;;;;;;;;;;;4.40;99.90;;;;;;2063063;28;19949;-67
2022/04/11 01:32:19;;;;;;;;;;;4.40;99.90;;;;;;2058579;28;20782;-68
2022/04/11 01:33:21;;;;;;;;;;;4.40;99.90;;;;;;2065155;28;19922;-68
2022/04/11 01:34:21;;;;;;;;;;;4.40;99.90;;;;;;2060787;28;19914;-68
2022/04/11 01:35:24;;;;;;;;;;;4.40;99.90;;;;;;2072496;28;19910;-68
2022/04/11 01:36:24;;;;;;;;;;;4.40;99.90;;;;;;2068899;28;19913;-68
2022/04/11 01:37:26;;;;;;;;;;;4.40;99.90;;;;;;2064950;28;20421;-68
2022/04/11 01:38:26;;;;;;;;;;;4.40;99.90;;;;;;2061937;28;20001;-67
2022/04/11 01:39:27;;;;;;;;;;;4.40;99.90;;;;;;2064055;28;19914;-68
2022/04/11 01:40:27;;;;;;;;;;;4.40;99.90;;;;;;2064890;28;19910;-68
2022/04/11 01:41:28;;;;;;;;;;;4.50;99.90;;;;;;2066363;28;19918;-68
2022/04/11 01:42:28;;;;;;;;;;;4.50;99.90;;;;;;2064942;28;20669;-68
2022/04/11 01:43:29;;;;;;;;;;;4.50;99.90;;;;;;2066322;28;19922;-68
2022/04/11 01:44:29;;;;;;;;;;;4.50;99.90;;;;;;2065551;28;20001;-68
2022/04/11 01:45:30;;;;;;;;;;;4.50;99.90;;;;;;2066036;28;19917;-68
2022/04/11 01:46:30;;;;;;;;;;;4.50;99.90;;;;;;2064950;28;19965;-68
2022/04/11 01:47:31;;;;;;;;;;;4.50;99.90;;;;;;2065322;28;19914;-68
2022/04/11 01:48:31;;;;;;;;;;;4.60;99.90;;;;;;2064006;28;19967;-67
2022/04/11 01:49:31;;;;;;;;;;;4.60;99.90;;;;;;2067703;28;19918;-68
2022/04/11 01:50:32;;;;;;;;;;;4.60;99.90;;;;;;2067218;28;19914;-68
2022/04/11 01:51:32;;;;;;;;;;;4.60;99.90;;;;;;2060291;28;20541;-68
2022/04/11 01:52:33;;;;;;;;;;;4.60;99.90;;;;;;2064600;28;19914;-68
2022/04/11 01:53:34;;;;;;;;;;;4.70;99.90;;;;;;2064085;28;20379;-68
2022/04/11 01:54:34;;;;;;;;;;;4.70;99.90;;;;;;2062200;28;19949;-67
2022/04/11 01:55:35;;;;;;;;;;;4.70;99.90;;;;;;2064175;28;19996;-68
2022/04/11 01:56:35;;;;;;;;;;;4.70;99.90;;;;;;2064120;28;21455;-68
2022/04/11 01:57:36;;;;;;;;;;;4.70;99.90;;;;;;2060711;28;20362;-68
2022/04/11 01:58:36;;;;;;;;;;;4.80;99.90;;;;;;2065258;28;20052;-68
2022/04/11 01:59:37;;;;;;;;;;;4.80;99.90;;;;;;2064516;28;19922;-68
2022/04/11 02:00:38;;;;;;;;;;;4.80;99.90;;;;;;2064892;28;19921;-68
2022/04/11 02:01:38;;;;;;;;;;;4.80;99.90;;;;;;2065724;28;20027;-68
2022/04/11 02:02:39;;;;;;;;;;;4.80;99.90;;;;;;2062859;28;19913;-68
2022/04/11 02:03:39;;;;;;;;;;;4.80;99.90;;;;;;2065005;28;20380;-68
2022/04/11 02:04:39;;;;;;;;;;;4.80;99.90;;;;;;2061302;28;19924;-68
2022/04/11 02:05:40;;;;;;;;;;;4.80;99.10;;;;;;2059959;28;20016;-68
2022/04/11 02:06:41;;;;;;;;;;;4.90;99.40;;;;;;2062400;28;19910;-68
2022/04/11 02:07:41;;;;;;;;;;;4.90;99.40;;;;;;2062709;28;19961;-68
2022/04/11 02:08:42;;;;;;;;;;;4.90;99.00;;;;;;2066836;28;20475;-68
2022/04/11 02:09:42;;;;;;;;;;;4.90;98.80;;;;;;2064322;28;19920;-68
2022/04/11 02:10:43;;;;;;;;;;;4.90;98.90;;;;;;2062864;28;19914;-68
2022/04/11 02:11:43;;;;;;;;;;;5.00;98.60;;;;;;2064841;28;19921;-68
2022/04/11 02:12:44;;;;;;;;;;;4.90;98.00;;;;;;2061305;28;20338;-68
2022/04/11 02:13:44;;;;;;;;;;;5.00;98.10;;;;;;2064227;28;19913;-68
2022/04/11 02:14:45;;;;;;;;;;;5.00;98.20;;;;;;2067508;28;19914;-68
2022/04/11 02:15:45;;;;;;;;;;;5.00;97.90;;;;;;2064372;28;20008;-68
2022/04/11 02:16:45;;;;;;;;;;;5.00;97.30;;;;;;2066640;28;19930;-68
2022/04/11 02:17:46;;;;;;;;;;;5.00;97.60;;;;;;2065258;28;19914;-68
2022/04/11 02:18:46;;;;;;;;;;;5.00;97.50;;;;;;2064553;28;19992;-68
2022/04/11 02:19:47;;;;;;;;;;;5.00;97.10;;;;;;2063082;28;19917;-68
2022/04/11 02:20:47;;;;;;;;;;;5.10;97.20;;;;;;2061028;28;19917;-68
2022/04/11 02:21:48;;;;;;;;;;;5.10;97.20;;;;;;2064012;28;19945;-68
2022/04/11 02:22:49;;;;;;;;;;;5.10;96.80;;;;;;2067282;28;19961;-68
2022/04/11 02:23:50;;;;;;;;;;;5.10;96.70;;;;;;2065318;28;19917;-68
2022/04/11 02:24:50;;;;;;;;;;;5.10;96.60;;;;;;2065909;28;20018;-68
2022/04/11 02:25:51;;;;;;;;;;;5.10;96.30;;;;;;2062792;28;19949;-68
2022/04/11 02:26:51;;;;;;;;;;;5.10;96.10;;;;;;2065046;28;19913;-68
2022/04/11 02:27:54;;;;;;;;;;;5.10;96.50;;;;;;2062480;28;19910;-68
2022/04/11 02:28:54;;;;;;;;;;;5.10;96.20;;;;;;2065220;28;19914;-68
2022/04/11 02:29:55;;;;;;;;;;;5.20;96.40;;;;;;2067463;28;19921;-68
2022/04/11 02:30:56;;;;;;;;;;;5.10;96.10;;;;;;2063606;28;20004;-68
2022/04/11 02:31:56;;;;;;;;;;;5.20;96.30;;;;;;2065207;28;20251;-68
2022/04/11 02:32:57;;;;;;;;;;;5.20;95.90;;;;;;2065999;28;19932;-68
2022/04/11 02:33:57;;;;;;;;;;;5.20;95.80;;;;;;2060643;28;19960;-68
2022/04/11 02:34:58;;;;;;;;;;;5.20;96.00;;;;;;2060636;28;20002;-68
2022/04/11 02:35:58;;;;;;;;;;;5.10;96.20;;;;;;2064155;28;19914;-68
2022/04/11 02:36:58;;;;;;;;;;;5.20;96.20;;;;;;2069931;28;20480;-68
2022/04/11 02:37:59;;;;;;;;;;;5.20;96.20;;;;;;2065981;28;19961;-68
2022/04/11 02:38:59;;;;;;;;;;;5.20;96.20;;;;;;2063309;28;19918;-68
2022/04/11 02:40:04;;;;;;;;;;;5.20;96.00;;;;;;2062942;28;20468;-68
2022/04/11 02:41:04;;;;;;;;;;;5.20;96.20;;;;;;2062491;28;20334;-68
2022/04/11 02:42:05;;;;;;;;;;;5.20;95.90;;;;;;2062350;28;19910;-68
2022/04/11 02:43:05;;;;;;;;;;;5.20;96.10;;;;;;2061508;28;20290;-68
2022/04/11 02:44:06;;;;;;;;;;;5.20;96.10;;;;;;2061110;28;19913;-68
2022/04/11 02:45:07;;;;;;;;;;;5.20;96.10;;;;;;2066819;28;19910;-68
2022/04/11 02:46:07;;;;;;;;;;;5.20;95.60;;;;;;2059990;28;20313;-68
2022/04/11 02:47:08;;;;;;;;;;;5.20;95.30;;;;;;2062669;28;19928;-68
2022/04/11 02:48:08;;;;;;;;;;;5.20;95.60;;;;;;2062404;28;20289;-68
2022/04/11 02:49:08;;;;;;;;;;;5.10;95.60;;;;;;2062615;28;19917;-68
2022/04/11 02:50:09;;;;;;;;;;;5.10;95.90;;;;;;2064007;28;20413;-68
2022/04/11 02:51:10;;;;;;;;;;;5.20;95.90;;;;;;2064193;28;19925;-68
2022/04/11 02:52:11;;;;;;;;;;;5.20;95.60;;;;;;2064129;28;20525;-68
2022/04/11 02:53:11;;;;;;;;;;;5.20;95.90;;;;;;2067476;28;20389;-68
2022/04/11 02:54:11;;;;;;;;;;;5.20;96.20;;;;;;2066010;28;19910;-68
2022/04/11 02:55:12;;;;;;;;;;;5.20;96.40;;;;;;2065203;28;19956;-68
2022/04/11 02:56:12;;;;;;;;;;;5.20;97.90;;;;;;2065581;28;20483;-68
2022/04/11 02:57:13;;;;;;;;;;;5.20;98.70;;;;;;2063868;28;19948;-68
2022/04/11 02:58:15;;;;;;;;;;;5.20;98.30;;;;;;2064694;28;20497;-68
2022/04/11 02:59:15;;;;;;;;;;;5.20;97.40;;;;;;2061744;28;19911;-68
2022/04/11 03:00:16;;;;;;;;;;;5.20;97.20;;;;;;2063670;28;19918;-68
2022/04/11 03:01:16;;;;;;;;;;;5.20;98.20;;;;;;2067792;28;19909;-68
2022/04/11 03:02:17;;;;;;;;;;;5.10;97.50;;;;;;2065879;28;19920;-68
2022/04/11 03:03:17;;;;;;;;;;;5.20;97.00;;;;;;2061814;28;19914;-68
2022/04/11 03:04:18;;;;;;;;;;;5.20;96.90;;;;;;2061800;28;19921;-68
2022/04/11 03:05:19;;;;;;;;;;;5.20;98.00;;;;;;2061266;28;20282;-68
2022/04/11 03:06:19;;;;;;;;;;;5.20;97.90;;;;;;2063710;28;19913;-68
2022/04/11 03:07:20;;;;;;;;;;;5.20;97.80;;;;;;2060942;28;19925;-68
2022/04/11 03:08:21;;;;;;;;;;;5.20;98.00;;;;;;2065884;28;20005;-68
2022/04/11 03:09:21;;;;;;;;;;;5.20;98.50;;;;;;2067029;28;19921;-68
2022/04/11 03:10:22;;;;;;;;;;;5.20;99.30;;;;;;2063372;28;19917;-68
2022/04/11 03:11:22;;;;;;;;;;;5.20;98.90;;;;;;2066693;28;20358;-68
2022/04/11 03:12:24;;;;;;;;;;;5.20;99.80;;;;;;2063482;28;20327;-68
2022/04/11 03:13:25;;;;;;;;;;;5.20;99.90;;;;;;2062536;28;19961;-68
2022/04/11 03:14:25;;;;;;;;;;;5.20;99.90;;;;;;2063098;28;19995;-68
2022/04/11 03:15:26;;;;;;;;;;;5.20;99.90;;;;;;2061535;28;19997;-68
2022/04/11 03:16:26;;;;;;;;;;;5.10;98.70;;;;;;2066803;28;19920;-68
2022/04/11 03:17:26;;;;;;;;;;;5.10;98.80;;;;;;2060317;28;20263;-68
2022/04/11 03:18:27;;;;;;;;;;;5.10;99.50;;;;;;2064169;28;19964;-68
2022/04/11 03:19:27;;;;;;;;;;;5.10;99.90;;;;;;2064179;28;20001;-68
2022/04/11 03:20:28;;;;;;;;;;;5.10;99.90;;;;;;2062266;28;20321;-68
2022/04/11 03:21:28;;;;;;;;;;;5.10;99.90;;;;;;2065288;28;19921;-68
2022/04/11 03:22:29;;;;;;;;;;;5.10;99.90;;;;;;2062472;28;19930;-68
2022/04/11 03:23:29;;;;;;;;;;;5.10;99.90;;;;;;2065841;28;19917;-68
2022/04/11 03:24:30;;;;;;;;;;;5.10;99.90;;;;;;2067916;28;19980;-68
2022/04/11 03:25:31;;;;;;;;;;;5.10;99.90;;;;;;2064435;28;19949;-68
2022/04/11 03:26:32;;;;;;;;;;;5.10;99.90;;;;;;2064941;28;19976;-68
2022/04/11 03:27:32;;;;;;;;;;;5.10;99.90;;;;;;2066003;28;19909;-68
2022/04/11 03:28:33;;;;;;;;;;;5.10;99.90;;;;;;2063212;28;20322;-68
2022/04/11 03:29:33;;;;;;;;;;;5.10;99.90;;;;;;2064332;28;19959;-68
2022/04/11 03:30:34;;;;;;;;;;;5.10;99.90;;;;;;2064830;28;19960;-68
2022/04/11 03:31:34;;;;;;;;;;;5.10;99.90;;;;;;2059064;28;19914;-68
2022/04/11 03:32:34;;;;;;;;;;;5.10;99.90;;;;;;2063477;28;19918;-68
2022/04/11 03:33:35;;;;;;;;;;;5.10;99.90;;;;;;2061888;28;19964;-68
2022/04/11 03:34:36;;;;;;;;;;;5.10;99.90;;;;;;2058350;28;19914;-68
2022/04/11 03:35:37;;;;;;;;;;;5.10;99.90;;;;;;2062761;28;19910;-68
2022/04/11 03:36:38;;;;;;;;;;;5.10;99.90;;;;;;2066507;28;19928;-68
2022/04/11 03:37:38;;;;;;;;;;;5.10;99.90;;;;;;2064320;28;20015;-68
2022/04/11 03:38:39;;;;;;;;;;;5.10;99.90;;;;;;2061128;28;19913;-68
2022/04/11 03:39:39;;;;;;;;;;;5.10;99.90;;;;;;2063711;28;20012;-68
2022/04/11 03:40:40;;;;;;;;;;;5.10;99.90;;;;;;2061750;28;19921;-68
2022/04/11 03:41:43;;;;;;;;;;;5.10;99.90;;;;;;2063634;28;19918;-68
2022/04/11 03:42:43;;;;;;;;;;;5.10;99.90;;;;;;2062750;28;20369;-68
2022/04/11 03:43:44;;;;;;;;;;;5.10;99.90;;;;;;2063581;28;20276;-68
2022/04/11 03:44:44;;;;;;;;;;;5.10;99.90;;;;;;2062824;28;19953;-68
2022/04/11 03:45:45;;;;;;;;;;;5.10;99.90;;;;;;2063206;28;20287;-68
2022/04/11 03:46:45;;;;;;;;;;;5.10;99.90;;;;;;2064242;28;20297;-68
2022/04/11 03:47:45;;;;;;;;;;;5.10;99.90;;;;;;2063687;28;19995;-68
2022/04/11 03:48:46;;;;;;;;;;;5.10;99.90;;;;;;2064151;28;20303;-68
2022/04/11 03:49:46;;;;;;;;;;;5.10;99.90;;;;;;2063370;28;19924;-68
2022/04/11 03:50:47;;;;;;;;;;;5.10;99.90;;;;;;2064436;28;19910;-68
2022/04/11 03:51:47;;;;;;;;;;;5.10;99.90;;;;;;2061673;28;20350;-68
2022/04/11 03:52:48;;;;;;;;;;;5.10;99.90;;;;;;2064184;28;19949;-68
2022/04/11 03:53:48;;;;;;;;;;;5.00;99.90;;;;;;2063699;28;19914;-68
2022/04/11 03:54:49;;;;;;;;;;;5.10;99.90;;;;;;2060388;28;19917;-68
2022/04/11 03:55:49;;;;;;;;;;;5.10;99.90;;;;;;2064308;28;19954;-68
2022/04/11 03:56:49;;;;;;;;;;;5.10;99.90;;;;;;2063162;28;19918;-68
2022/04/11 03:57:50;;;;;;;;;;;5.10;99.90;;;;;;2065147;28;20434;-69
2022/04/11 03:58:51;;;;;;;;;;;5.10;99.90;;;;;;2067884;28;20614;-68
2022/04/11 03:59:51;;;;;;;;;;;5.10;99.90;;;;;;2061774;28;19917;-68
2022/04/11 04:00:52;;;;;;;;;;;5.00;99.90;;;;;;2064040;28;19910;-68
2022/04/11 04:01:52;;;;;;;;;;;5.00;99.90;;;;;;2061612;28;19910;-68
2022/04/11 04:02:52;;;;;;;;;;;5.00;99.90;;;;;;2060487;28;19909;-68
2022/04/11 04:03:53;;;;;;;;;;;5.00;99.90;;;;;;2067658;28;19916;-68
2022/04/11 04:04:54;;;;;;;;;;;5.00;99.90;;;;;;2063804;28;19953;-68
2022/04/11 04:05:54;;;;;;;;;;;5.00;99.90;;;;;;2064829;28;20696;-68
2022/04/11 04:06:55;;;;;;;;;;;5.00;99.90;;;;;;2065944;28;20391;-68
2022/04/11 04:07:55;;;;;;;;;;;5.00;99.90;;;;;;2063186;28;19965;-68
2022/04/11 04:08:55;;;;;;;;;;;5.00;99.90;;;;;;2064383;28;19917;-68
2022/04/11 04:09:56;;;;;;;;;;;5.00;99.90;;;;;;2060888;28;19949;-68
2022/04/11 04:10:56;;;;;;;;;;;5.00;99.90;;;;;;2062740;28;20361;-68
2022/04/11 04:11:57;;;;;;;;;;;5.00;99.90;;;;;;2067717;28;19959;-68
2022/04/11 04:12:58;;;;;;;;;;;5.00;99.90;;;;;;2063798;28;19953;-68
2022/04/11 04:13:58;;;;;;;;;;;4.90;99.90;;;;;;2061687;28;19917;-68
2022/04/11 04:14:59;;;;;;;;;;;4.90;99.90;;;;;;2062478;28;19992;-68
2022/04/11 04:16:00;;;;;;;;;;;4.90;99.90;;;;;;2061251;28;20155;-68
2022/04/11 04:17:00;;;;;;;;;;;4.90;99.90;;;;;;2064893;28;19914;-68
2022/04/11 04:18:01;;;;;;;;;;;4.90;99.90;;;;;;2063721;28;19913;-68
2022/04/11 04:19:02;;;;;;;;;;;4.90;99.90;;;;;;2063821;28;19914;-68
2022/04/11 04:20:04;;;;;;;;;;;4.90;99.90;;;;;;2063101;28;19949;-68
2022/04/11 04:21:05;;;;;;;;;;;4.90;99.90;;;;;;2063157;28;19917;-68
2022/04/11 04:22:05;;;;;;;;;;;4.90;99.90;;;;;;2064604;28;19965;-68
2022/04/11 04:23:06;;;;;;;;;;;4.90;99.90;;;;;;2060170;28;19922;-68
2022/04/11 04:24:07;;;;;;;;;;;4.90;99.90;;;;;;2062202;28;19961;-68
2022/04/11 04:25:07;;;;;;;;;;;4.90;99.90;;;;;;2063389;28;19913;-68
2022/04/11 04:26:08;;;;;;;;;;;4.90;99.90;;;;;;2062784;28;20337;-68
2022/04/11 04:27:08;;;;;;;;;;;4.90;99.90;;;;;;2062436;28;19965;-68
2022/04/11 04:28:09;;;;;;;;;;;4.90;99.90;;;;;;2061728;28;19917;-68
2022/04/11 04:29:09;;;;;;;;;;;4.90;99.90;;;;;;2063445;28;20049;-68
2022/04/11 04:30:10;;;;;;;;;;;4.90;99.90;;;;;;2062785;28;19914;-68
2022/04/11 04:31:10;;;;;;;;;;;4.90;99.70;;;;;;2062297;28;19941;-68
2022/04/11 04:32:11;;;;;;;;;;;4.90;99.60;;;;;;2062932;28;19964;-68
2022/04/11 04:33:12;;;;;;;;;;;4.90;99.90;;;;;;2060948;28;19914;-68
2022/04/11 04:34:13;;;;;;;;;;;4.90;99.90;;;;;;2059738;28;19917;-68
2022/04/11 04:35:14;;;;;;;;;;;4.90;99.90;;;;;;2068078;28;19914;-68
2022/04/11 04:36:14;;;;;;;;;;;4.90;99.80;;;;;;2070100;28;19996;-68
2022/04/11 04:37:15;;;;;;;;;;;4.90;99.70;;;;;;2069400;28;19987;-68
2022/04/11 04:38:15;;;;;;;;;;;4.90;99.90;;;;;;2070803;28;19925;-68
2022/04/11 04:39:16;;;;;;;;;;;4.90;99.90;;;;;;2060285;28;19968;-68
2022/04/11 04:40:16;;;;;;;;;;;4.90;99.90;;;;;;2062289;28;20004;-68
2022/04/11 04:41:17;;;;;;;;;;;4.90;99.90;;;;;;2058821;28;19960;-68
2022/04/11 04:42:21;;;;;;;;;;;4.90;99.90;;;;;;2062051;28;19917;-68
2022/04/11 04:43:21;;;;;;;;;;;4.90;99.70;;;;;;2059711;28;19968;-68
2022/04/11 04:44:22;;;;;;;;;;;4.90;99.40;;;;;;2060351;28;19918;-68
2022/04/11 04:45:23;;;;;;;;;;;4.90;98.80;;;;;;2059103;28;19921;-68
2022/04/11 04:46:23;;;;;;;;;;;4.90;98.80;;;;;;2059660;28;19910;-68
2022/04/11 04:47:25;;;;;;;;;;;5.00;98.80;;;;;;2060333;28;19936;-68
2022/04/11 04:48:26;;;;;;;;;;;5.00;99.10;;;;;;2058486;28;19965;-68
2022/04/11 04:49:26;;;;;;;;;;;5.00;99.00;;;;;;2061140;28;19959;-68
2022/04/11 04:50:26;;;;;;;;;;;4.90;99.00;;;;;;2059277;28;20009;-68
2022/04/11 04:51:27;;;;;;;;;;;5.00;99.00;;;;;;2059684;28;19918;-68
2022/04/11 04:52:27;;;;;;;;;;;4.90;99.00;;;;;;2062552;28;19960;-68
2022/04/11 04:53:28;;;;;;;;;;;5.00;98.80;;;;;;2061867;28;20284;-68
2022/04/11 04:54:28;;;;;;;;;;;4.90;99.00;;;;;;2059447;28;20373;-68
2022/04/11 04:55:29;;;;;;;;;;;4.90;99.50;;;;;;2061860;28;19918;-68
2022/04/11 04:56:31;;;;;;;;;;;5.00;99.90;;;;;;2061659;28;19946;-68
2022/04/11 04:57:32;;;;;;;;;;;4.90;99.70;;;;;;2059699;28;19977;-68
2022/04/11 04:58:32;;;;;;;;;;;4.90;99.80;;;;;;2063899;28;19980;-68
2022/04/11 04:59:33;;;;;;;;;;;4.90;99.50;;;;;;2059417;28;19910;-68
2022/04/11 05:00:33;;;;;;;;;;;4.90;99.80;;;;;;2062678;28;20000;-68
2022/04/11 05:01:34;;;;;;;;;;;4.90;99.80;;;;;;2060476;28;19957;-68
2022/04/11 05:02:35;;;;;;;;;;;4.90;99.90;;;;;;2059380;28;20438;-68
2022/04/11 05:03:37;;;;;;;;;;;4.90;99.90;;;;;;2062442;28;20362;-68
2022/04/11 05:04:37;;;;;;;;;;;4.90;99.40;;;;;;2061981;28;20006;-68
2022/04/11 05:05:37;;;;;;;;;;;4.90;99.80;;;;;;2060887;28;19929;-68
2022/04/11 05:06:38;;;;;;;;;;;4.90;99.90;;;;;;2063136;28;19914;-68
2022/04/11 05:07:38;;;;;;;;;;;4.90;99.50;;;;;;2059962;28;20304;-68
2022/04/11 05:08:39;;;;;;;;;;;4.90;99.90;;;;;;2061913;28;19914;-68
2022/04/11 05:09:40;;;;;;;;;;;4.90;99.90;;;;;;2061374;28;19914;-68
2022/04/11 05:10:40;;;;;;;;;;;5.00;99.80;;;;;;2064388;28;19976;-68
2022/04/11 05:11:40;;;;;;;;;;;4.90;99.30;;;;;;2059668;28;20325;-68
2022/04/11 05:12:42;;;;;;;;;;;4.90;99.00;;;;;;2060190;28;20388;-68
2022/04/11 05:13:43;;;;;;;;;;;4.90;98.80;;;;;;2062877;28;19909;-68
2022/04/11 05:14:43;;;;;;;;;;;5.00;98.50;;;;;;2061277;28;19910;-68
2022/04/11 05:15:46;;;;;;;;;;;5.00;98.30;;;;;;2059967;28;19917;-68
2022/04/11 05:16:46;;;;;;;;;;;5.00;98.20;;;;;;2060969;28;19918;-68
2022/04/11 05:17:47;;;;;;;;;;;5.00;98.20;;;;;;2062860;28;19918;-68
2022/04/11 05:18:47;;;;;;;;;;;5.00;98.40;;;;;;2063677;28;20286;-68
2022/04/11 05:19:47;;;;;;;;;;;5.00;97.80;;;;;;2063120;28;19918;-68
2022/04/11 05:20:48;;;;;;;;;;;5.00;97.90;;;;;;2061568;28;20274;-68
2022/04/11 05:21:48;;;;;;;;;;;5.00;98.30;;;;;;2060519;28;19972;-68
2022/04/11 05:22:49;;;;;;;;;;;5.00;98.00;;;;;;2062193;28;20300;-68
2022/04/11 05:23:49;;;;;;;;;;;5.00;97.60;;;;;;2059977;28;20321;-68
2022/04/11 05:24:50;;;;;;;;;;;5.00;97.50;;;;;;2061538;28;19917;-68
2022/04/11 05:25:50;;;;;;;;;;;5.00;97.60;;;;;;2059590;28;19964;-68
2022/04/11 05:26:51;;;;;;;;;;;5.00;97.30;;;;;;2061297;28;19914;-68
2022/04/11 05:27:52;;;;;;;;;;;5.10;97.40;;;;;;2060792;28;19914;-68
2022/04/11 05:28:52;;;;;;;;;;;5.10;97.10;;;;;;2063066;28;19918;-68
2022/04/11 05:29:52;;;;;;;;;;;5.10;97.30;;;;;;2060248;28;19918;-68
2022/04/11 05:30:53;;;;;;;;;;;5.10;96.90;;;;;;2061725;28;19914;-68
2022/04/11 05:31:53;;;;;;;;;;;5.10;96.80;;;;;;2067675;28;19921;-68
2022/04/11 05:32:54;;;;;;;;;;;5.10;96.70;;;;;;2073535;28;20328;-68
2022/04/11 05:33:54;;;;;;;;;;;5.10;97.00;;;;;;2062354;28;19922;-68
2022/04/11 05:34:55;;;;;;;;;;;5.10;97.30;;;;;;2059192;28;19910;-68
2022/04/11 05:35:56;;;;;;;;;;;5.10;97.60;;;;;;2062526;28;19957;-68
2022/04/11 05:36:56;;;;;;;;;;;5.10;97.30;;;;;;2060688;28;19921;-68
2022/04/11 05:37:57;;;;;;;;;;;5.10;97.10;;;;;;2060712;28;19921;-68
2022/04/11 05:38:58;;;;;;;;;;;5.20;97.50;;;;;;2059528;28;19914;-68
2022/04/11 05:39:58;;;;;;;;;;;5.20;97.10;;;;;;2058809;28;20005;-68
2022/04/11 05:40:59;;;;;;;;;;;5.20;97.10;;;;;;2061166;28;20004;-68
2022/04/11 05:41:59;;;;;;;;;;;5.20;97.30;;;;;;2060675;28;19922;-68
2022/04/11 05:42:59;;;;;;;;;;;5.20;96.70;;;;;;2061191;28;20428;-68
2022/04/11 05:44:00;;;;;;;;;;;5.20;96.60;;;;;;2058181;28;19918;-68
2022/04/11 05:45:00;;;;;;;;;;;5.30;96.40;;;;;;2059296;28;20030;-68
2022/04/11 05:46:02;;;;;;;;;;;5.30;96.60;;;;;;2060241;28;19924;-68
2022/04/11 05:47:02;;;;;;;;;;;5.40;95.90;;;;;;2060136;28;19924;-68
2022/04/11 05:48:03;;;;;;;;;;;5.40;95.60;;;;;;2060943;28;20029;-68
2022/04/11 05:49:03;;;;;;;;;;;5.50;95.80;;;;;;2060614;28;19933;-68
2022/04/11 05:50:04;;;;;;;;;;;5.50;95.80;;;;;;2066199;28;20392;-68
2022/04/11 05:51:04;;;;;;;;;;;5.60;95.50;;;;;;2066480;28;19911;-68
2022/04/11 05:52:06;;;;;;;;;;;5.60;94.90;;;;;;2062494;28;19948;-68
2022/04/11 05:53:06;;;;;;;;;;;5.70;94.90;;;;;;2061561;28;19909;-68
2022/04/11 05:54:07;;;;;;;;;;;5.80;94.30;;;;;;2057434;28;19917;-68
2022/04/11 05:55:08;;;;;;;;;;;5.80;93.70;;;;;;2063296;28;19917;-68
2022/04/11 05:56:08;;;;;;;;;;;5.90;92.70;;;;;;2060113;28;19929;-68
2022/04/11 05:57:09;;;;;;;;;;;6.00;92.40;;;;;;2060058;28;20282;-68
2022/04/11 05:58:09;;;;;;;;;;;6.00;92.90;;;;;;2059342;28;19914;-68
2022/04/11 05:59:10;;;;;;;;;;;6.10;92.90;;;;;;2062810;28;19924;-68